Terminal Aerodrome Forecast
Issued by NWS Jackson, KY

Home | Current Version | Previous Version | Text Only | Print | Product List | Glossary On
Versions: 1 2 3 4 5 6 7 8 9 10 11 12 13 14 15 16 17 18 19 20 21
000
FTUS43 KJKL 252030 AAA
TAFLOZ
TAF AMD
KLOZ 252030Z 2521/2618 20009KT P6SM SCT020 BKN070
     FM252330 24009KT P6SM VCTS BKN030CB
     FM260400 35008KT 5SM SHRA VCTS BKN010CB OVC030
     FM260700 35008KT 6SM BR OVC002=

USA.gov is the U.S. government's official web portal to all federal, state and local government web resources and services.